Time;durP1;ratioP1;P1;durP2;ratioP2;P2;SDS_P1;SDS_P2;PMS_P1;PMS_P2;Temp;Humidity;BMP_temperature;BMP_pressure;BME280_temperature;BME280_humidity;BME280_pressure;Samples;Min_cycle;Max_cycle;Signal;HPM_P1;HPM_P2
2021/11/01 00:00:07;;;;;;;8.65;6.18;;;8.00;99.90;;;;;;5035483;28;20044;-74
2021/11/01 00:02:41;;;;;;;8.93;6.78;;;7.90;99.90;;;;;;5053274;28;20091;-73
2021/11/01 00:05:09;;;;;;;6.55;5.22;;;7.80;99.90;;;;;;5051715;28;20052;-74
2021/11/01 00:07:41;;;;;;;7.85;6.05;;;7.70;99.90;;;;;;5036472;28;20415;-74
2021/11/01 00:10:13;;;;;;;10.10;5.88;;;7.70;99.90;;;;;;5053151;28;20045;-74
2021/11/01 00:12:46;;;;;;;6.97;5.57;;;7.70;99.90;;;;;;5052001;28;20419;-73
2021/11/01 00:15:14;;;;;;;9.68;5.70;;;7.60;99.90;;;;;;5053029;28;20407;-74
2021/11/01 00:17:46;;;;;;;7.78;4.53;;;7.60;99.90;;;;;;5051822;28;20041;-74
2021/11/01 00:20:20;;;;;;;5.43;4.57;;;7.60;99.90;;;;;;5051880;28;20041;-74
2021/11/01 00:22:47;;;;;;;6.75;5.07;;;7.70;99.90;;;;;;5051943;28;20037;-74
2021/11/01 00:25:14;;;;;;;6.65;4.65;;;7.90;99.90;;;;;;5051461;28;20083;-74
2021/11/01 00:27:41;;;;;;;7.32;5.55;;;8.00;99.90;;;;;;5051713;28;20140;-73
2021/11/01 00:30:10;;;;;;;7.10;4.93;;;8.20;99.90;;;;;;5051840;28;20056;-73
2021/11/01 00:32:42;;;;;;;6.07;5.00;;;8.20;99.90;;;;;;5052825;28;20053;-74
2021/11/01 00:35:15;;;;;;;5.55;4.93;;;8.30;99.90;;;;;;5049396;28;20046;-73
2021/11/01 00:37:47;;;;;;;8.70;5.25;;;8.40;99.90;;;;;;5043970;28;20049;-74
2021/11/01 00:40:19;;;;;;;5.65;4.55;;;8.40;99.90;;;;;;5034399;28;20040;-73
2021/11/01 00:42:46;;;;;;;5.90;4.32;;;8.40;99.90;;;;;;5050743;28;20041;-74
2021/11/01 00:45:13;;;;;;;10.32;6.70;;;8.40;99.90;;;;;;5034558;28;20529;-73
2021/11/01 00:47:45;;;;;;;9.65;7.03;;;8.30;99.90;;;;;;5035620;28;20041;-73
2021/11/01 00:50:17;;;;;;;9.10;7.25;;;8.20;99.90;;;;;;5035588;28;20053;-73
2021/11/01 00:52:44;;;;;;;10.65;7.40;;;8.10;99.90;;;;;;5051220;28;20041;-73
2021/11/01 00:55:34;;;;;;;8.75;6.90;;;8.00;99.90;;;;;;5050993;28;20507;-74
2021/11/01 00:58:01;;;;;;;8.68;6.45;;;7.90;99.90;;;;;;5034697;28;20075;-74
2021/11/01 01:00:29;;;;;;;9.18;5.80;;;7.80;99.90;;;;;;5051286;28;20044;-73
2021/11/01 01:03:01;;;;;;;6.93;5.88;;;7.80;99.90;;;;;;5050995;28;20045;-74
2021/11/01 01:05:33;;;;;;;9.82;6.03;;;7.70;99.90;;;;;;5050634;28;20040;-73
2021/11/01 01:08:05;;;;;;;7.82;5.05;;;7.70;99.90;;;;;;5035250;28;20044;-73
2021/11/01 01:10:32;;;;;;;5.70;4.10;;;7.70;99.90;;;;;;5034364;28;20049;-73
2021/11/01 01:13:04;;;;;;;6.05;4.38;;;7.70;99.90;;;;;;5035945;28;20052;-73
2021/11/01 01:15:37;;;;;;;6.28;4.95;;;7.70;99.90;;;;;;5052511;28;20049;-74
2021/11/01 01:18:16;;;;;;;13.35;6.13;;;7.70;99.90;;;;;;5050508;28;20040;-74
2021/11/01 01:20:48;;;;;;;8.05;6.63;;;7.70;99.90;;;;;;5050619;28;20423;-73
2021/11/01 01:23:21;;;;;;;9.30;7.25;;;7.70;99.90;;;;;;5051675;28;20055;-73
2021/11/01 01:25:52;;;;;;;9.75;7.18;;;7.70;99.90;;;;;;5049851;28;20068;-73
2021/11/01 01:28:25;;;;;;;11.50;7.68;;;7.60;99.90;;;;;;5033961;28;20507;-73
2021/11/01 01:30:57;;;;;;;9.93;7.00;;;7.60;99.90;;;;;;5034554;28;20056;-73
2021/11/01 01:33:24;;;;;;;9.60;7.25;;;7.60;99.90;;;;;;5051575;28;20129;-73
2021/11/01 01:35:51;;;;;;;11.05;6.70;;;7.50;99.90;;;;;;5051229;28;20120;-73
2021/11/01 01:38:24;;;;;;;7.95;6.55;;;7.50;99.90;;;;;;5034442;28;20495;-73
2021/11/01 01:40:54;;;;;;;6.00;5.15;;;7.50;99.90;;;;;;5050203;28;20075;-73
2021/11/01 01:43:26;;;;;;;6.25;5.28;;;7.40;99.90;;;;;;5049879;28;20421;-73
2021/11/01 01:45:52;;;;;;;5.85;4.55;;;7.40;99.90;;;;;;5033268;28;20041;-73
2021/11/01 01:48:24;;;;;;;9.20;4.78;;;7.40;99.90;;;;;;5050075;28;20049;-74
2021/11/01 01:50:51;;;;;;;5.10;4.60;;;7.40;99.90;;;;;;5049794;28;20418;-74
2021/11/01 01:53:21;;;;;;;8.10;5.00;;;7.30;99.90;;;;;;5049998;28;20123;-73
2021/11/01 01:55:53;;;;;;;12.27;4.60;;;7.30;99.90;;;;;;5049679;28;20041;-73
2021/11/01 01:58:22;;;;;;;5.68;4.75;;;7.30;99.90;;;;;;5049825;28;20484;-73
2021/11/01 02:03:30;;;;;;;6.10;4.57;;;7.20;99.90;;;;;;5049125;28;20048;-74
2021/11/01 02:06:09;;;;;;;6.28;4.18;;;7.20;99.90;;;;;;5048874;28;20037;-73
2021/11/01 02:09:30;;;;;;;5.55;3.97;;;7.20;99.90;;;;;;5049064;28;20045;-73
2021/11/01 02:12:06;;;;;;;16.80;5.15;;;7.10;99.90;;;;;;5048929;28;20049;-73
2021/11/01 02:14:50;;;;;;;6.18;5.13;;;7.20;99.90;;;;;;5048073;28;20399;-73
2021/11/01 02:17:24;;;;;;;8.35;5.13;;;7.20;99.90;;;;;;5048629;28;20137;-74
2021/11/01 02:19:53;;;;;;;7.95;5.50;;;7.20;99.90;;;;;;5033474;28;20052;-73
2021/11/01 02:22:43;;;;;;;5.63;5.05;;;7.20;99.90;;;;;;5034030;28;20056;-74
2021/11/01 02:25:41;;;;;;;8.50;5.55;;;7.20;99.90;;;;;;5049433;28;20531;-73
2021/11/01 02:28:17;;;;;;;8.07;6.32;;;7.30;99.90;;;;;;5033388;28;20063;-74
2021/11/01 02:30:50;;;;;;;11.45;7.03;;;7.20;99.90;;;;;;5049409;28;20443;-74
2021/11/01 02:33:24;;;;;;;8.00;6.70;;;7.20;99.90;;;;;;5050538;28;20593;-73
2021/11/01 02:35:56;;;;;;;;;;;7.30;99.90;;;;;;5033486;28;20088;-73
2021/11/01 02:38:29;;;;;;;8.80;6.78;;;7.30;99.90;;;;;;5049136;28;20576;-74
2021/11/01 02:41:17;;;;;;;10.05;6.43;;;7.30;99.90;;;;;;5049045;28;20044;-73
2021/11/01 02:43:58;;;;;;;7.90;6.43;;;7.30;99.90;;;;;;5049820;28;20064;-74
2021/11/01 02:46:27;;;;;;;7.70;5.90;;;7.30;99.90;;;;;;5050629;28;20488;-74
2021/11/01 02:48:54;;;;;;;6.45;4.88;;;7.40;99.90;;;;;;5049816;28;20041;-73
2021/11/01 02:51:24;;;;;;;10.73;5.13;;;7.40;99.90;;;;;;5049605;28;20057;-74
2021/11/01 02:53:58;;;;;;;8.48;5.47;;;7.40;99.90;;;;;;5049565;28;20079;-73
2021/11/01 02:56:30;;;;;;;7.60;5.03;;;7.40;99.90;;;;;;5049573;28;20037;-74
2021/11/01 02:59:03;;;;;;;5.43;4.20;;;7.40;99.90;;;;;;5033736;28;20048;-73
2021/11/01 03:01:30;;;;;;;5.82;4.40;;;7.40;99.90;;;;;;5049421;28;20068;-74
2021/11/01 03:04:02;;;;;;;6.65;4.10;;;7.40;99.90;;;;;;5033613;28;20079;-74
2021/11/01 03:06:30;;;;;;;6.35;4.80;;;7.40;99.90;;;;;;5049388;28;20052;-74
2021/11/01 03:08:58;;;;;;;6.07;5.07;;;7.40;99.90;;;;;;5049562;28;20052;-74
2021/11/01 03:11:31;;;;;;;7.28;6.35;;;7.40;99.90;;;;;;5049393;28;20049;-74
2021/11/01 03:13:59;;;;;;;7.82;5.88;;;7.50;99.90;;;;;;5049430;28;20052;-74
2021/11/01 03:16:32;;;;;;;7.75;6.47;;;7.50;99.90;;;;;;5049560;28;20048;-74
2021/11/01 03:19:03;;;;;;;9.20;7.05;;;7.50;99.90;;;;;;5049322;28;20514;-73
2021/11/01 03:21:42;;;;;;;9.50;7.45;;;7.50;99.90;;;;;;5049420;28;20047;-73
2021/11/01 03:24:15;;;;;;;9.07;7.63;;;7.60;99.90;;;;;;5049976;28;20035;-74
2021/11/01 03:26:47;;;;;;;9.07;7.00;;;7.50;99.90;;;;;;5049406;28;20045;-74
2021/11/01 03:29:21;;;;;;;9.40;7.55;;;7.50;99.90;;;;;;5051540;28;20053;-74
2021/11/01 03:31:56;;;;;;;9.95;7.00;;;7.50;99.90;;;;;;5037205;28;20053;-73
2021/11/01 03:34:25;;;;;;;8.70;7.03;;;7.40;99.90;;;;;;5052497;28;20053;-74
2021/11/01 03:37:04;;;;;;;7.90;6.50;;;7.40;99.90;;;;;;5037141;28;20048;-73
2021/11/01 03:39:42;;;;;;;8.20;6.80;;;7.40;99.90;;;;;;5052887;28;20064;-74
2021/11/01 03:42:15;;;;;;;8.32;6.32;;;7.40;99.90;;;;;;5052985;28;20041;-73
2021/11/01 03:44:52;;;;;;;9.80;6.75;;;7.40;99.90;;;;;;5036649;28;20045;-74
2021/11/01 03:47:26;;;;;;;8.07;6.38;;;7.30;99.90;;;;;;5036947;28;20041;-74
2021/11/01 03:49:57;;;;;;;8.60;6.70;;;7.30;99.90;;;;;;5052605;28;20499;-73
2021/11/01 03:52:28;;;;;;;9.30;6.78;;;7.30;99.90;;;;;;5036167;28;20068;-74
2021/11/01 03:54:55;;;;;;;6.53;5.85;;;7.20;99.90;;;;;;5052087;28;20048;-73
2021/11/01 03:57:27;;;;;;;8.30;6.65;;;7.20;99.90;;;;;;5036700;28;20051;-74
2021/11/01 03:59:59;;;;;;;9.05;6.00;;;7.20;99.90;;;;;;5052472;28;20059;-74
2021/11/01 04:02:33;;;;;;;7.63;5.75;;;7.20;99.90;;;;;;5052589;28;20045;-74
2021/11/01 04:05:01;;;;;;;7.40;6.50;;;7.20;99.90;;;;;;5053236;28;20056;-74
2021/11/01 04:07:33;;;;;;;10.23;7.07;;;7.20;99.90;;;;;;5052580;28;20033;-73
2021/11/01 04:10:07;;;;;;;8.10;6.57;;;7.10;99.90;;;;;;5036413;28;20051;-74
2021/11/01 04:12:36;;;;;;;8.10;6.72;;;7.10;99.90;;;;;;5035669;28;20056;-74
2021/11/01 04:15:09;;;;;;;8.57;6.38;;;7.10;99.90;;;;;;5051843;28;20041;-73
2021/11/01 04:17:42;;;;;;;7.63;5.80;;;7.00;99.90;;;;;;5052191;28;20611;-74
2021/11/01 04:22:57;;;;;;;6.93;5.90;;;7.00;99.90;;;;;;5053114;28;20040;-73
2021/11/01 04:25:32;;;;;;;7.22;5.90;;;7.00;99.90;;;;;;5052815;28;20491;-73
2021/11/01 04:28:04;;;;;;;6.55;5.10;;;7.00;99.90;;;;;;5052214;28;20044;-73
2021/11/01 04:30:39;;;;;;;7.18;6.15;;;7.00;99.90;;;;;;5035467;28;20044;-75
2021/11/01 04:33:14;;;;;;;6.72;5.80;;;7.00;99.90;;;;;;5036029;28;20053;-74
2021/11/01 04:35:46;;;;;;;7.32;6.25;;;7.00;99.90;;;;;;5034626;28;20538;-73
2021/11/01 04:41:20;;;;;;;9.50;6.72;;;7.00;99.90;;;;;;5010430;28;20041;-73
2021/11/01 04:54:55;;;;;;;6.65;4.93;;;7.00;99.90;;;;;;5042416;28;20136;-73
2021/11/01 04:57:23;;;;;;;8.07;5.93;;;7.00;99.90;;;;;;5050423;28;20490;-73
2021/11/01 04:59:50;;;;;;;5.97;4.75;;;7.00;99.90;;;;;;5050660;28;20052;-73
2021/11/01 05:02:25;;;;;;;5.30;4.53;;;7.10;99.90;;;;;;5050704;28;20037;-73
2021/11/01 05:04:53;;;;;;;6.22;4.78;;;7.10;99.90;;;;;;5050085;28;20469;-73
2021/11/01 05:07:27;;;;;;;5.72;4.97;;;7.10;99.90;;;;;;5050549;28;20057;-73
2021/11/01 05:10:23;;;;;;;5.13;4.40;;;7.10;99.90;;;;;;5050420;28;20052;-73
2021/11/01 05:12:50;;;;;;;6.65;5.57;;;7.10;99.90;;;;;;5050506;28;20060;-73
2021/11/01 05:17:57;;;;;;;10.82;7.93;;;7.10;99.90;;;;;;5050273;28;20131;-73
2021/11/01 05:20:37;;;;;;;10.15;6.95;;;7.10;99.90;;;;;;5050453;28;20049;-73
2021/11/01 05:23:11;;;;;;;7.35;6.30;;;6.90;99.90;;;;;;5051379;28;20133;-73
2021/11/01 05:25:51;;;;;;;8.63;6.25;;;6.80;99.90;;;;;;5051198;28;20120;-73
2021/11/01 05:28:28;;;;;;;8.52;7.05;;;6.70;99.90;;;;;;5050215;28;20049;-73
2021/11/01 05:31:05;;;;;;;10.20;6.60;;;6.60;99.90;;;;;;5050201;28;20151;-73
2021/11/01 05:36:03;;;;;;;9.13;6.13;;;6.50;99.90;;;;;;5050085;28;20047;-73
2021/11/01 05:38:35;;;;;;;8.15;6.68;;;6.60;99.90;;;;;;5050537;28;20059;-74
2021/11/01 05:41:03;;;;;;;10.02;8.85;;;6.60;99.90;;;;;;5050178;28;20509;-73
2021/11/01 05:43:30;;;;;;;6.65;4.78;;;6.70;99.90;;;;;;5050221;28;20139;-73
2021/11/01 05:46:03;;;;;;;7.70;6.22;;;6.90;99.90;;;;;;5033956;28;20045;-73
2021/11/01 05:48:36;;;;;;;5.32;4.50;;;7.00;99.90;;;;;;5050477;28;20527;-73
2021/11/01 05:51:12;;;;;;;5.57;4.43;;;7.10;99.90;;;;;;5051467;28;20049;-73
2021/11/01 05:53:49;;;;;;;5.25;4.60;;;7.20;99.90;;;;;;5051395;28;20474;-73
2021/11/01 05:56:38;;;;;;;6.13;4.85;;;7.30;99.90;;;;;;5049791;28;20041;-73
2021/11/01 06:07:16;;;;;;;5.80;4.35;;;7.60;99.90;;;;;;5049805;28;20052;-73
2021/11/01 06:15:15;;;;;;;5.78;4.32;;;7.60;99.90;;;;;;5028844;28;20455;-74
2021/11/01 06:17:47;;;;;;;5.00;4.05;;;7.70;99.90;;;;;;5038147;28;20676;-73
2021/11/01 06:20:19;;;;;;;5.43;4.35;;;7.80;99.90;;;;;;5031439;28;20134;-73
2021/11/01 06:22:53;;;;;;;5.80;4.32;;;7.80;99.90;;;;;;5050475;28;20040;-73
2021/11/01 06:25:25;;;;;;;5.82;4.43;;;7.80;99.90;;;;;;5050608;28;20045;-74
2021/11/01 06:27:57;;;;;;;4.43;4.00;;;7.90;99.90;;;;;;5049224;28;20068;-74
2021/11/01 06:30:31;;;;;;;5.88;4.25;;;7.90;99.90;;;;;;5044197;28;20494;-76
2021/11/01 06:41:44;;;;;;;10.65;6.72;;;8.30;99.90;;;;;;5043803;28;20041;-73
2021/11/01 06:55:22;;;;;;;10.80;7.25;;;9.00;99.90;;;;;;5038761;28;20037;-73
2021/11/01 07:22:20;;;;;;;3.47;2.60;;;9.50;99.90;;;;;;5049691;28;20040;-73
2021/11/01 07:25:20;;;;;;;3.08;2.45;;;9.50;99.90;;;;;;5050319;28;20499;-74
2021/11/01 08:28:33;;;;;;;10.65;8.57;;;9.80;99.90;;;;;;5049730;28;20053;-73
2021/11/01 08:37:08;;;;;;;48.45;28.02;;;9.90;99.90;;;;;;5049798;28;20042;-74
2021/11/01 08:48:08;;;;;;;10.45;7.03;;;9.90;99.90;;;;;;5051638;28;20131;-74
2021/11/01 09:01:55;;;;;;;9.77;7.20;;;9.70;99.90;;;;;;5048729;28;20049;-74
2021/11/01 09:10:47;;;;;;;2.75;2.53;;;9.60;99.90;;;;;;5033242;28;20041;-74
2021/11/01 09:26:48;;;;;;;3.05;2.78;;;9.40;99.90;;;;;;5028348;28;20136;-74
2021/11/01 09:29:46;;;;;;;3.10;1.08;;;9.40;99.90;;;;;;5042706;28;20434;-74
2021/11/01 09:43:14;;;;;;;0.98;0.57;;;9.40;99.90;;;;;;5050220;28;20055;-74
2021/11/01 09:45:42;;;;;;;1.60;1.08;;;9.30;99.90;;;;;;5049593;28;20068;-74
2021/11/01 09:48:09;;;;;;;1.50;1.23;;;9.40;99.90;;;;;;5049121;28;20079;-74
2021/11/01 09:50:40;;;;;;;1.42;1.10;;;9.40;99.90;;;;;;5050085;28;20131;-74
2021/11/01 09:53:18;;;;;;;1.85;1.10;;;9.50;99.90;;;;;;5048870;28;20051;-74
2021/11/01 09:55:50;;;;;;;1.55;0.95;;;9.50;99.90;;;;;;5049709;28;20139;-74
2021/11/01 10:01:16;;;;;;;4.88;4.38;;;9.50;99.90;;;;;;5051307;28;20131;-74
2021/11/01 10:03:51;;;;;;;3.50;2.78;;;9.50;99.90;;;;;;5049965;28;20043;-74
2021/11/01 10:06:26;;;;;;;3.60;2.35;;;9.50;99.90;;;;;;5049784;28;20041;-74
2021/11/01 10:08:54;;;;;;;3.13;2.55;;;9.60;99.90;;;;;;5049912;28;20136;-74
2021/11/01 10:11:28;;;;;;;3.13;2.00;;;9.60;99.90;;;;;;5049838;28;20045;-74
2021/11/01 10:14:04;;;;;;;1.40;1.02;;;9.60;99.90;;;;;;5049726;28;20055;-74
2021/11/01 10:19:37;;;;;;;1.30;0.90;;;9.50;99.90;;;;;;5050989;28;20047;-74
2021/11/01 10:22:24;;;;;;;0.82;0.60;;;9.50;99.90;;;;;;5049779;28;20419;-74
2021/11/01 10:24:54;;;;;;;1.05;0.70;;;9.50;99.90;;;;;;5049526;28;20040;-74
2021/11/01 10:27:56;;;;;;;1.90;0.95;;;9.50;99.90;;;;;;5048274;28;20045;-74
2021/11/01 10:30:33;;;;;;;0.80;0.50;;;9.50;99.90;;;;;;5044192;28;20061;-73
2021/11/01 10:33:04;;;;;;;1.98;0.60;;;9.50;99.90;;;;;;5049443;28;20049;-74
2021/11/01 10:35:42;;;;;;;0.77;0.57;;;9.40;99.90;;;;;;5045726;28;20068;-74
2021/11/01 10:41:04;;;;;;;1.40;0.40;;;9.30;99.90;;;;;;5045141;28;20446;-74
2021/11/01 11:23:34;;;;;;;1.35;0.40;;;9.10;99.90;;;;;;5035215;28;20104;-74
2021/11/01 11:49:12;;;;;;;0.98;0.60;;;9.10;99.90;;;;;;5047055;28;20057;-73
2021/11/01 11:51:52;;;;;;;0.85;0.55;;;9.10;99.90;;;;;;5038460;28;20053;-74
2021/11/01 11:54:33;;;;;;;0.98;0.60;;;9.10;99.90;;;;;;5022857;28;20136;-74
2021/11/01 11:57:04;;;;;;;0.88;0.57;;;9.10;99.90;;;;;;5037712;28;20373;-74
2021/11/01 11:59:37;;;;;;;1.20;0.70;;;9.20;99.90;;;;;;5043054;28;20040;-74
2021/11/01 12:02:10;;;;;;;1.02;0.68;;;9.20;99.90;;;;;;5043632;28;20048;-74
2021/11/01 12:04:47;;;;;;;1.05;0.93;;;9.20;99.90;;;;;;5022014;28;20048;-74
2021/11/01 12:07:16;;;;;;;3.88;1.30;;;9.20;99.90;;;;;;5035409;28;20139;-74
2021/11/01 12:09:55;;;;;;;1.98;1.02;;;9.20;99.90;;;;;;5035851;28;20095;-74
2021/11/01 12:18:07;;;;;;;1.73;1.35;;;9.20;99.90;;;;;;5040150;28;20523;-74
2021/11/01 12:20:40;;;;;;;1.77;1.30;;;9.30;99.90;;;;;;5045982;28;20040;-74
2021/11/01 12:23:06;;;;;;;2.47;1.52;;;9.30;99.90;;;;;;5048914;28;20033;-74
2021/11/01 12:25:37;;;;;;;2.20;1.52;;;9.30;99.90;;;;;;5047349;28;20048;-73
2021/11/01 12:28:12;;;;;;;3.92;2.33;;;9.50;99.90;;;;;;5050892;28;20523;-74
2021/11/01 12:30:50;;;;;;;3.90;2.33;;;9.60;99.90;;;;;;5048578;28;20103;-74
2021/11/01 12:33:23;;;;;;;2.33;1.60;;;9.70;99.90;;;;;;5019453;28;20462;-73
2021/11/01 12:35:54;;;;;;;2.88;1.65;;;9.70;99.90;;;;;;5045983;28;20041;-74
2021/11/01 12:38:38;;;;;;;1.42;1.05;;;9.70;99.90;;;;;;5029771;28;20053;-74
2021/11/01 12:41:51;;;;;;;1.10;0.90;;;9.70;99.90;;;;;;5031576;28;20048;-73
2021/11/01 12:58:06;;;;;;;1.73;1.20;;;9.50;99.90;;;;;;5051028;28;20049;-74
2021/11/01 13:00:39;;;;;;;5.30;2.72;;;9.50;99.90;;;;;;5051019;28;20056;-73
2021/11/01 13:03:16;;;;;;;2.22;1.30;;;9.50;99.90;;;;;;5050874;28;20140;-74
2021/11/01 13:06:03;;;;;;;2.90;1.58;;;9.50;99.90;;;;;;5050701;28;20048;-74
2021/11/01 13:08:34;;;;;;;1.98;1.38;;;9.50;99.90;;;;;;5051377;28;20041;-74
2021/11/01 13:11:57;;;;;;;1.83;1.60;;;9.50;99.90;;;;;;5051233;28;20049;-74
2021/11/01 13:19:22;;;;;;;0.70;0.50;;;9.40;99.90;;;;;;5050911;28;20057;-74
2021/11/01 13:22:05;;;;;;;1.13;0.60;;;9.30;99.90;;;;;;5034761;28;20049;-73
2021/11/01 13:24:48;;;;;;;0.75;0.50;;;9.20;99.90;;;;;;5050196;28;20045;-74
2021/11/01 13:27:52;;;;;;;0.70;0.40;;;9.20;99.90;;;;;;5025351;28;20088;-74
2021/11/01 13:38:51;;;;;;;1.10;0.55;;;8.70;99.90;;;;;;5046841;28;20045;-74
2021/11/01 13:41:30;;;;;;;0.73;0.40;;;8.70;99.90;;;;;;5047513;28;20041;-73
2021/11/01 13:44:23;;;;;;;1.08;0.73;;;8.50;99.90;;;;;;5034379;28;20073;-74
2021/11/01 13:47:01;;;;;;;0.90;0.77;;;8.50;99.90;;;;;;5040741;28;20495;-74
2021/11/01 13:49:36;;;;;;;1.10;0.70;;;8.40;99.90;;;;;;5047910;28;20440;-74
2021/11/01 13:52:25;;;;;;;1.85;0.50;;;8.40;99.90;;;;;;5053460;28;20442;-74
2021/11/01 13:55:10;;;;;;;2.58;1.88;;;8.40;99.90;;;;;;5051899;28;20098;-74
2021/11/01 13:58:18;;;;;;;0.82;0.40;;;8.40;99.90;;;;;;5054542;28;20044;-74
2021/11/01 14:28:15;;;;;;;1.45;0.60;;;8.60;99.90;;;;;;5042593;28;20033;-74
2021/11/01 14:37:10;;;;;;;1.48;0.63;;;8.70;99.90;;;;;;5029103;28;20079;-73
2021/11/01 14:55:27;;;;;;;1.73;0.98;;;8.70;99.90;;;;;;5031796;28;20128;-73
2021/11/01 14:57:18;;;;;;;3.47;1.65;;;8.60;99.90;;;;;;5038725;28;20052;-74
2021/11/01 15:15:35;;;;;;;1.38;1.08;;;8.10;99.90;;;;;;5039693;28;20106;-73
2021/11/01 15:35:10;;;;;;;3.97;2.05;;;7.90;99.90;;;;;;5040554;28;20049;-73
2021/11/01 16:19:40;;;;;;;3.50;1.67;;;7.50;99.90;;;;;;5053061;28;20565;-73
2021/11/01 16:22:12;;;;;;;4.68;1.38;;;7.50;99.90;;;;;;5053141;28;20095;-73
2021/11/01 16:24:39;;;;;;;3.10;1.00;;;7.50;99.90;;;;;;5051318;28;20049;-73
2021/11/01 16:27:14;;;;;;;3.05;1.00;;;7.50;99.90;;;;;;5053212;28;20029;-73
2021/11/01 16:29:58;;;;;;;1.65;1.30;;;7.40;99.90;;;;;;5048285;28;20075;-73
2021/11/01 16:32:39;;;;;;;4.65;2.60;;;7.40;99.90;;;;;;5047629;28;20559;-73
2021/11/01 16:35:07;;;;;;;1.60;0.90;;;7.40;99.90;;;;;;5051380;28;20045;-73
2021/11/01 16:37:40;;;;;;;0.98;0.73;;;7.30;99.90;;;;;;5050859;28;20476;-73
2021/11/01 16:40:11;;;;;;;2.58;0.60;;;7.30;99.90;;;;;;5035186;28;20076;-73
2021/11/01 16:42:41;;;;;;;1.60;1.08;;;7.30;99.90;;;;;;5052772;28;20467;-73
2021/11/01 16:45:36;;;;;;;0.40;0.30;;;7.30;99.90;;;;;;5051320;28;20036;-73
2021/11/01 16:48:03;;;;;;;;;;;7.20;99.90;;;;;;5052099;28;20132;-73
2021/11/01 16:50:29;;;;;;;0.30;0.30;;;7.20;99.90;;;;;;5051562;28;20448;-73
2021/11/01 16:53:01;;;;;;;0.52;0.40;;;7.20;99.90;;;;;;5051401;28;20135;-73
2021/11/01 16:55:30;;;;;;;0.25;0.25;;;7.20;99.90;;;;;;5050964;28;20135;-73
2021/11/01 16:58:01;;;;;;;0.43;0.30;;;7.20;99.90;;;;;;5051374;28;20471;-74
2021/11/01 17:00:38;;;;;;;4.20;3.03;;;7.20;99.90;;;;;;5050908;28;20499;-73
2021/11/01 17:08:58;;;;;;;0.63;0.35;;;7.10;99.90;;;;;;5052560;28;20068;-73
2021/11/01 17:23:11;;;;;;;0.52;0.45;;;7.10;99.90;;;;;;5050039;28;20447;-74
2021/11/01 17:28:41;;;;;;;0.50;0.45;;;7.10;99.90;;;;;;5043035;28;20056;-72
2021/11/01 17:36:57;;;;;;;0.90;0.50;;;7.10;99.90;;;;;;5049704;28;20037;-73
2021/11/01 18:39:13;;;;;;;1.42;0.90;;;7.10;99.90;;;;;;5042700;28;20417;-73
2021/11/01 18:41:55;;;;;;;0.88;0.70;;;7.10;99.90;;;;;;5032278;28;20041;-72
2021/11/01 18:45:19;;;;;;;1.70;0.90;;;7.10;99.90;;;;;;5047203;28;20040;-73
2021/11/01 18:53:04;;;;;;;2.53;1.10;;;7.10;99.90;;;;;;5049083;28;20049;-74
2021/11/01 18:55:37;;;;;;;1.52;0.90;;;7.10;99.90;;;;;;5049593;28;20537;-73
2021/11/01 18:58:06;;;;;;;2.17;0.88;;;7.10;99.90;;;;;;5049011;28;20559;-74
2021/11/01 19:00:42;;;;;;;1.48;1.00;;;7.10;99.90;;;;;;5051799;28;20064;-73
2021/11/01 19:03:16;;;;;;;1.58;0.80;;;7.10;99.90;;;;;;5035646;28;20103;-73
2021/11/01 19:08:53;;;;;;;1.45;1.08;;;7.10;99.90;;;;;;5034143;28;20128;-73
2021/11/01 20:05:24;;;;;;;1.75;1.08;;;7.20;99.90;;;;;;5051413;28;20067;-73
2021/11/01 21:27:24;;;;;;;2.88;2.15;;;7.40;99.90;;;;;;5050746;28;20128;-73
2021/11/01 21:29:56;;;;;;;3.08;2.45;;;7.50;99.90;;;;;;5051895;28;20124;-73
2021/11/01 21:32:28;;;;;;;4.55;2.65;;;7.40;99.90;;;;;;5051776;28;20061;-73
2021/11/01 21:35:04;;;;;;;3.50;2.55;;;7.40;99.90;;;;;;5051704;28;20037;-73
2021/11/01 21:37:36;;;;;;;3.15;2.42;;;7.40;99.90;;;;;;5050478;28;20443;-73
2021/11/01 21:40:10;;;;;;;3.95;2.50;;;7.40;99.90;;;;;;5050491;28;20115;-73
2021/11/01 21:42:43;;;;;;;3.72;2.53;;;7.40;99.90;;;;;;5050633;28;20041;-73
2021/11/01 21:45:10;;;;;;;3.33;2.55;;;7.30;99.90;;;;;;5050021;28;20128;-73
2021/11/01 21:47:42;;;;;;;3.67;2.40;;;7.30;99.90;;;;;;5050212;28;20495;-74
2021/11/01 21:50:09;;;;;;;1.73;1.38;;;7.30;99.90;;;;;;5051741;28;20071;-73
2021/11/01 21:52:36;;;;;;;2.72;0.90;;;7.20;99.90;;;;;;5050679;28;20124;-73
2021/11/01 21:55:09;;;;;;;;;;;7.20;99.90;;;;;;5050469;28;20537;-72
2021/11/01 21:57:42;;;;;;;1.50;0.90;;;7.20;99.90;;;;;;5050040;28;19925;-73
2021/11/01 22:57:38;;;;;;;2.42;1.83;;;7.10;99.90;;;;;;5049469;28;20151;-73
2021/11/01 23:00:18;;;;;;;2.05;1.65;;;7.10;99.90;;;;;;5048648;28;20388;-73
2021/11/01 23:02:49;;;;;;;4.75;2.05;;;7.10;99.90;;;;;;5049086;28;20458;-74
2021/11/01 23:33:16;;;;;;;3.70;2.50;;;6.80;99.90;;;;;;5048980;28;20060;-73
2021/11/01 23:35:44;;;;;;;2.40;2.20;;;6.80;99.90;;;;;;5048761;28;20135;-73
2021/11/01 23:38:17;;;;;;;2.95;2.63;;;6.80;99.90;;;;;;5049071;28;20045;-73
2021/11/01 23:40:45;;;;;;;3.45;2.75;;;6.70;99.90;;;;;;5049167;28;20447;-73
2021/11/01 23:43:18;;;;;;;3.23;2.77;;;6.70;99.90;;;;;;5048783;28;20271;-73
2021/11/01 23:45:47;;;;;;;3.13;2.70;;;6.70;99.90;;;;;;5049856;28;20454;-72
2021/11/01 23:48:20;;;;;;;5.28;2.65;;;6.60;99.90;;;;;;5052589;28;20051;-73
2021/11/01 23:50:52;;;;;;;2.90;2.60;;;6.50;99.90;;;;;;5052731;28;20400;-73
2021/11/01 23:53:35;;;;;;;2.88;2.45;;;6.50;99.90;;;;;;5052605;28;20048;-73
2021/11/01 23:56:10;;;;;;;3.20;2.50;;;6.40;99.90;;;;;;5051796;28;20362;-73
2021/11/01 23:58:39;;;;;;;3.85;2.60;;;6.40;99.90;;;;;;5052412;28;20052;-73
